MET'MAP v2.0
soon released !

Expected late october,
this new version will be
more efficient, smarter,
and hosted on a brand new
server x3 powerfull...
...and still free !


Not compatible ?
Try the mobile version !

LOG IN : | Subscribe | Disclaimer | Who is Orbifly ? |
ICAO code :
Legend : VFR Marginal VFR IFR Intensive IFR Very Intensive IFR
Visi :
Ceiling :
>= 8 km
>= 3000ft
5 to 8 km
1000 to 3000 ft
1500m to 5 km
500 to 1000 ft
800 to 1500m
200 to 500 ft
< 800m
< 200 ft

METAR - EGBE Coventry - 27 May 2020 06:00 UTC
Data Sources :     NOAA   


- Airport Elevation : 267 ft
- IATA code : CVT
- No reported NOTAMs.


EGBE - Coventry

Latest METAR recorded : 2015/08/11 07:50 EGBE 110750Z VRB02KT CAVOK 14/11 Q1020
Expired Forecast.

Source NOAA
ATIS : +44 24 7688 2668
Met : +44 870 330 4789


MET'MAP, your aeronautical weather chart ! - Copyright ORBIFLY December 2007

Programming & Development : Alexandra Zaïnal
Co-Developer : Marc-Olivier Méhu
Technical & hardware support : Manuel Goepfert
Concept & Financing : Baudouin d'Aumeries